createdAt,value
2022-11-30T00:00:06.737Z,6.88
2022-11-30T00:02:08.776Z,8.27
2022-11-30T00:04:10.727Z,8.25
2022-11-30T00:06:14.930Z,7.45
2022-11-30T00:08:17.141Z,8.98
2022-11-30T00:10:18.998Z,8.60
2022-11-30T00:12:20.744Z,9.40
2022-11-30T00:14:22.469Z,8.63
2022-11-30T00:16:24.409Z,8.82
2022-11-30T00:18:26.271Z,8.35
2022-11-30T00:20:30.194Z,7.75
2022-11-30T00:22:31.937Z,8.32
2022-11-30T00:24:33.639Z,8.20
2022-11-30T00:26:35.424Z,6.50
2022-11-30T00:28:38.392Z,7.50
2022-11-30T00:30:40.200Z,8.40
2022-11-30T00:32:42.026Z,7.40
2022-11-30T00:34:43.820Z,8.85
2022-11-30T00:36:46.397Z,7.55
2022-11-30T00:38:48.650Z,8.10
2022-11-30T00:40:50.493Z,8.75
2022-11-30T00:42:52.278Z,8.40
2022-11-30T00:44:54.063Z,9.25
2022-11-30T00:46:55.865Z,6.43
2022-11-30T00:48:57.580Z,7.90
2022-11-30T00:50:59.339Z,7.88
2022-11-30T00:53:01.157Z,8.13
2022-11-30T00:55:04.203Z,8.00
2022-11-30T00:57:06.305Z,7.97
2022-11-30T00:59:08.070Z,7.75
2022-11-30T01:01:09.946Z,7.65
2022-11-30T01:03:12.558Z,8.25
2022-11-30T01:05:14.353Z,7.38
2022-11-30T01:07:16.196Z,6.97
2022-11-30T01:09:17.982Z,6.95
2022-11-30T01:11:25.032Z,7.45
2022-11-30T01:13:26.819Z,6.07
2022-11-30T01:15:28.886Z,6.22
2022-11-30T01:17:30.699Z,7.82
2022-11-30T01:19:32.413Z,6.80
2022-11-30T01:21:34.137Z,7.88
2022-11-30T01:23:36.174Z,9.00
2022-11-30T01:25:38.103Z,7.75
2022-11-30T01:27:39.994Z,9.00
2022-11-30T01:29:41.853Z,8.30
2022-11-30T01:31:43.732Z,8.30
2022-11-30T01:33:49.265Z,8.23
2022-11-30T01:36:01.859Z,8.55
2022-11-30T01:38:03.647Z,6.40
2022-11-30T01:40:06.193Z,7.40
2022-11-30T01:42:15.216Z,7.93
2022-11-30T01:44:20.102Z,6.07
2022-11-30T01:46:34.623Z,7.22
2022-11-30T01:48:36.395Z,6.80
2022-11-30T01:50:38.532Z,8.52
2022-11-30T01:52:42.847Z,8.82
2022-11-30T01:54:44.777Z,7.80
2022-11-30T01:56:56.902Z,7.55
2022-11-30T01:58:58.774Z,9.57
2022-11-30T02:01:00.701Z,8.15
2022-11-30T02:03:02.416Z,7.70
2022-11-30T02:05:04.936Z,7.95
2022-11-30T02:07:08.665Z,7.13
2022-11-30T02:09:10.822Z,9.50
2022-11-30T02:11:14.322Z,8.65
2022-11-30T02:13:25.048Z,7.47
2022-11-30T02:15:31.864Z,9.70
2022-11-30T02:17:36.314Z,8.45
2022-11-30T02:19:57.463Z,7.68
2022-11-30T02:22:04.155Z,7.93
2022-11-30T02:24:20.800Z,7.25
2022-11-30T02:26:50.456Z,7.43
2022-11-30T02:29:18.050Z,7.75
2022-11-30T02:31:23.463Z,7.63
2022-11-30T02:33:28.911Z,7.85
2022-11-30T02:35:33.408Z,8.00
2022-11-30T02:37:36.391Z,5.65
2022-11-30T02:39:38.116Z,6.72
2022-11-30T02:41:40.866Z,7.53
2022-11-30T02:43:43.133Z,7.30
2022-11-30T02:45:59.901Z,6.30
2022-11-30T02:48:09.300Z,6.93
2022-11-30T02:50:11.360Z,6.82
2022-11-30T02:52:13.549Z,5.93
2022-11-30T02:54:15.288Z,6.40
2022-11-30T02:56:20.810Z,7.07
2022-11-30T02:58:22.650Z,6.25
2022-11-30T03:00:24.530Z,8.57
2022-11-30T03:02:26.288Z,7.55
2022-11-30T03:04:28.022Z,7.45
2022-11-30T03:06:29.798Z,8.60
2022-11-30T03:08:31.602Z,7.45
2022-11-30T03:10:33.286Z,7.20
2022-11-30T03:12:35.082Z,6.97
2022-11-30T03:14:36.813Z,7.57
2022-11-30T03:16:39.199Z,6.78
2022-11-30T03:18:41.274Z,7.53
2022-11-30T03:20:43.373Z,8.27
2022-11-30T03:22:45.246Z,7.03
2022-11-30T03:24:47.334Z,7.38
2022-11-30T03:26:49.358Z,6.55
2022-11-30T03:28:51.104Z,7.40
2022-11-30T03:30:52.911Z,8.02
2022-11-30T03:32:54.732Z,8.18
2022-11-30T03:34:56.637Z,7.65
2022-11-30T03:36:58.496Z,7.50
2022-11-30T03:39:00.414Z,7.82
2022-11-30T03:41:11.334Z,7.50
2022-11-30T03:43:13.066Z,7.20
2022-11-30T03:45:14.998Z,6.95
2022-11-30T03:47:16.883Z,7.90
2022-11-30T03:49:18.600Z,6.93
2022-11-30T03:51:20.613Z,7.70
2022-11-30T03:53:23.643Z,7.60
2022-11-30T03:55:25.380Z,6.82
2022-11-30T03:57:27.178Z,6.70
2022-11-30T03:59:28.955Z,6.95
2022-11-30T04:01:30.832Z,5.45
2022-11-30T04:03:32.808Z,6.88
2022-11-30T04:05:34.600Z,6.18
2022-11-30T04:07:36.458Z,6.65
2022-11-30T04:09:38.183Z,7.32
2022-11-30T04:11:39.885Z,7.25
2022-11-30T04:13:42.545Z,5.35
2022-11-30T04:15:46.664Z,6.95
2022-11-30T04:17:48.726Z,7.25
2022-11-30T04:19:50.582Z,8.05
2022-11-30T04:21:52.458Z,9.43
2022-11-30T04:23:54.261Z,9.65
2022-11-30T04:25:56.978Z,10.93
2022-11-30T04:27:59.137Z,10.27
2022-11-30T04:30:00.947Z,9.65
2022-11-30T04:32:02.711Z,9.02
2022-11-30T04:34:04.549Z,7.28
2022-11-30T04:36:07.292Z,8.73
2022-11-30T04:38:09.200Z,9.95
2022-11-30T04:40:11.391Z,10.02
2022-11-30T04:42:13.160Z,9.65
2022-11-30T04:44:14.874Z,9.10
2022-11-30T04:46:16.694Z,8.38
2022-11-30T04:48:19.336Z,8.95
2022-11-30T04:50:21.112Z,9.65
2022-11-30T04:52:24.453Z,7.05
2022-11-30T04:54:26.167Z,7.35
2022-11-30T04:56:27.872Z,8.70
2022-11-30T04:58:32.948Z,7.07
2022-11-30T05:00:35.574Z,6.05
2022-11-30T05:02:37.425Z,6.43
2022-11-30T05:04:39.262Z,6.70
2022-11-30T05:06:41.044Z,6.57
2022-11-30T05:08:42.745Z,7.00
2022-11-30T05:10:48.827Z,7.43
2022-11-30T05:12:53.640Z,6.82
2022-11-30T05:14:55.336Z,7.38
2022-11-30T05:16:57.178Z,7.32
2022-11-30T05:18:58.847Z,7.45
2022-11-30T05:21:00.678Z,6.38
2022-11-30T05:23:02.397Z,6.50
2022-11-30T05:25:04.585Z,7.47
2022-11-30T05:27:13.409Z,7.05
2022-11-30T05:29:17.064Z,5.95
2022-11-30T05:31:18.866Z,7.68
2022-11-30T05:33:20.583Z,6.70
2022-11-30T05:35:22.311Z,7.30
2022-11-30T05:37:24.111Z,7.20
2022-11-30T05:39:25.846Z,6.30
2022-11-30T05:41:27.615Z,8.02
2022-11-30T05:43:47.492Z,7.60
2022-11-30T05:45:49.303Z,7.30
2022-11-30T05:47:51.807Z,6.70
2022-11-30T05:49:53.647Z,6.95
2022-11-30T05:52:15.109Z,7.63
2022-11-30T05:54:28.095Z,8.57
2022-11-30T05:56:30.060Z,8.20
2022-11-30T05:58:32.424Z,7.25
2022-11-30T06:00:34.593Z,7.20
2022-11-30T06:02:36.611Z,7.75
2022-11-30T06:04:38.626Z,6.65
2022-11-30T06:06:40.363Z,6.38
2022-11-30T06:08:42.608Z,8.18
2022-11-30T06:10:44.361Z,6.95
2022-11-30T06:12:46.826Z,6.88
2022-11-30T06:14:52.939Z,7.60
2022-11-30T06:16:54.941Z,6.68
2022-11-30T06:18:56.712Z,7.85
2022-11-30T06:21:08.134Z,7.88
2022-11-30T06:23:09.947Z,7.82
2022-11-30T06:25:11.691Z,7.80
2022-11-30T06:27:13.652Z,8.65
2022-11-30T06:29:22.974Z,7.57
2022-11-30T06:31:25.227Z,6.90
2022-11-30T06:33:27.806Z,6.82
2022-11-30T06:35:32.561Z,6.50
2022-11-30T06:37:50.852Z,7.30
2022-11-30T06:40:08.480Z,7.75
2022-11-30T06:42:11.170Z,7.10
2022-11-30T06:44:13.054Z,9.63
2022-11-30T06:46:17.138Z,8.68
2022-11-30T06:48:19.197Z,8.82
2022-11-30T06:50:21.203Z,7.38
2022-11-30T06:52:23.232Z,8.18
2022-11-30T06:54:25.502Z,7.60
2022-11-30T06:56:27.579Z,8.18
2022-11-30T06:58:29.531Z,7.30
2022-11-30T07:00:39.641Z,7.47
2022-11-30T07:02:42.054Z,7.78
2022-11-30T07:04:43.997Z,6.65
2022-11-30T07:06:46.064Z,7.07
2022-11-30T07:08:48.061Z,7.15
2022-11-30T07:10:50.137Z,6.53
2022-11-30T07:12:52.430Z,7.30
2022-11-30T07:15:04.317Z,6.43
2022-11-30T07:17:06.298Z,7.32
2022-11-30T07:19:08.231Z,9.75
2022-11-30T07:21:10.955Z,8.75
2022-11-30T07:23:31.747Z,10.38
2022-11-30T07:25:52.056Z,9.98
2022-11-30T07:27:56.049Z,8.70
2022-11-30T07:29:58.297Z,9.07
2022-11-30T07:32:12.398Z,10.50
2022-11-30T07:34:18.040Z,9.88
2022-11-30T07:36:21.977Z,9.43
2022-11-30T07:38:23.757Z,10.40
2022-11-30T07:40:25.509Z,9.77
2022-11-30T07:42:27.292Z,9.70
2022-11-30T07:44:29.057Z,11.35
2022-11-30T07:46:31.687Z,10.18
2022-11-30T07:48:35.686Z,10.50
2022-11-30T07:50:37.947Z,9.55
2022-11-30T07:52:40.705Z,10.82
2022-11-30T07:54:46.384Z,11.57
2022-11-30T07:56:51.493Z,10.88
2022-11-30T07:58:59.788Z,11.88
2022-11-30T08:01:07.905Z,11.77
2022-11-30T08:03:18.820Z,11.48
2022-11-30T08:05:21.035Z,13.38
2022-11-30T08:07:23.280Z,10.98
2022-11-30T08:09:25.217Z,13.18
2022-11-30T08:11:45.532Z,11.63
2022-11-30T08:13:48.118Z,11.60
2022-11-30T08:15:50.477Z,13.00
2022-11-30T08:17:55.618Z,10.75
2022-11-30T08:20:03.423Z,12.60
2022-11-30T08:22:06.761Z,11.40
2022-11-30T08:24:12.103Z,10.65
2022-11-30T08:26:29.821Z,13.00
2022-11-30T08:28:32.762Z,10.18
2022-11-30T08:30:35.056Z,8.52
2022-11-30T08:32:37.511Z,9.32
2022-11-30T08:34:43.956Z,9.27
2022-11-30T08:36:52.693Z,11.13
2022-11-30T08:38:55.161Z,8.90
2022-11-30T08:40:58.387Z,8.70
2022-11-30T08:43:00.183Z,9.90
2022-11-30T08:45:02.125Z,8.73
2022-11-30T08:47:04.410Z,10.95
2022-11-30T08:49:21.648Z,9.32
2022-11-30T08:51:24.799Z,9.80
2022-11-30T08:53:26.747Z,9.57
2022-11-30T08:55:28.726Z,9.25
2022-11-30T08:57:31.801Z,9.52
2022-11-30T08:59:33.879Z,7.78
2022-11-30T09:01:35.649Z,9.02
2022-11-30T09:03:38.017Z,8.57
2022-11-30T09:05:39.720Z,7.90
2022-11-30T09:07:41.565Z,6.65
2022-11-30T09:09:43.705Z,8.40
2022-11-30T09:11:46.095Z,7.45
2022-11-30T09:13:48.764Z,9.02
2022-11-30T09:15:57.121Z,8.40
2022-11-30T09:17:59.425Z,8.82
2022-11-30T09:20:01.833Z,7.72
2022-11-30T09:22:04.140Z,7.68
2022-11-30T09:24:06.813Z,7.28
2022-11-30T09:26:11.662Z,6.65
2022-11-30T09:28:14.261Z,6.15
2022-11-30T09:30:16.524Z,5.97
2022-11-30T09:32:18.402Z,7.95
2022-11-30T09:34:20.411Z,8.10
2022-11-30T09:36:22.910Z,7.25
2022-11-30T09:38:24.958Z,7.72
2022-11-30T09:40:33.907Z,8.10
2022-11-30T09:43:04.521Z,7.50
2022-11-30T09:45:07.644Z,6.93
2022-11-30T09:47:14.961Z,7.03
2022-11-30T09:49:22.275Z,6.68
2022-11-30T09:51:28.079Z,6.10
2022-11-30T09:53:46.320Z,6.13
2022-11-30T09:56:00.839Z,6.97
2022-11-30T09:58:19.582Z,6.75
2022-11-30T10:00:38.222Z,6.15
2022-11-30T10:03:13.330Z,6.15
2022-11-30T10:05:19.866Z,5.95
2022-11-30T10:07:49.410Z,5.95
2022-11-30T10:10:33.891Z,7.35
2022-11-30T10:13:05.927Z,5.57
2022-11-30T10:15:14.133Z,5.68
2022-11-30T10:17:34.697Z,6.25
2022-11-30T10:19:48.745Z,5.53
2022-11-30T10:22:04.037Z,5.97
2022-11-30T10:24:57.976Z,4.82
2022-11-30T10:27:03.120Z,5.07
2022-11-30T10:29:14.408Z,4.30
2022-11-30T10:31:16.817Z,4.30
2022-11-30T10:33:23.637Z,5.22
2022-11-30T10:35:41.447Z,5.32
2022-11-30T10:37:44.711Z,3.85
2022-11-30T10:39:55.544Z,5.35
2022-11-30T10:42:18.764Z,4.68
2022-11-30T10:44:26.719Z,5.65
2022-11-30T10:46:31.766Z,5.78
2022-11-30T10:48:52.922Z,4.45
2022-11-30T10:50:55.244Z,5.78
2022-11-30T10:53:13.856Z,5.97
2022-11-30T10:55:20.720Z,4.68
2022-11-30T10:57:25.324Z,4.85
2022-11-30T10:59:39.947Z,6.50
2022-11-30T11:01:42.702Z,5.57
2022-11-30T11:03:45.259Z,6.65
2022-11-30T11:05:47.330Z,5.53
2022-11-30T11:08:05.783Z,5.88
2022-11-30T11:10:14.948Z,5.00
2022-11-30T11:12:21.235Z,4.95
2022-11-30T11:14:24.833Z,4.47
2022-11-30T11:16:37.745Z,6.43
2022-11-30T11:19:18.621Z,4.68
2022-11-30T11:21:21.957Z,5.03
2022-11-30T11:23:35.301Z,4.80
2022-11-30T11:25:39.154Z,6.05
2022-11-30T11:27:44.870Z,5.38
2022-11-30T11:30:16.755Z,6.05
2022-11-30T11:32:27.850Z,6.13
2022-11-30T11:34:34.667Z,6.00
2022-11-30T11:36:37.039Z,6.28
2022-11-30T11:38:47.236Z,6.75
2022-11-30T11:41:01.246Z,6.38
2022-11-30T11:43:04.525Z,6.45
2022-11-30T11:45:06.837Z,8.32
2022-11-30T11:47:29.655Z,7.45
2022-11-30T11:49:38.382Z,5.82
2022-11-30T11:51:40.668Z,6.30
2022-11-30T11:53:53.580Z,6.47
2022-11-30T11:56:22.339Z,7.18
2022-11-30T11:58:32.245Z,6.55
2022-11-30T12:00:34.473Z,7.30
2022-11-30T12:02:48.575Z,6.07
2022-11-30T12:05:16.688Z,6.32
2022-11-30T12:07:34.554Z,6.68
2022-11-30T12:09:45.950Z,5.63
2022-11-30T12:11:49.621Z,6.15
2022-11-30T12:13:51.807Z,7.25
2022-11-30T12:16:05.925Z,5.55
2022-11-30T12:18:33.535Z,6.28
2022-11-30T12:20:56.755Z,5.85
2022-11-30T12:23:30.362Z,6.82
2022-11-30T12:25:38.883Z,5.45
2022-11-30T12:27:55.599Z,5.75
2022-11-30T12:30:13.941Z,5.30
2022-11-30T12:32:49.888Z,5.90
2022-11-30T12:35:17.127Z,5.97
2022-11-30T12:37:34.380Z,6.03
2022-11-30T12:40:05.729Z,4.93
2022-11-30T12:42:16.581Z,5.22
2022-11-30T12:44:40.281Z,4.43
2022-11-30T12:47:21.249Z,4.57
2022-11-30T12:50:00.916Z,5.13
2022-11-30T12:52:17.917Z,5.40
2022-11-30T12:54:47.287Z,3.20
2022-11-30T12:57:01.454Z,4.55
2022-11-30T12:59:19.601Z,4.53
2022-11-30T13:01:33.817Z,4.50
2022-11-30T13:04:04.272Z,6.15
2022-11-30T13:06:13.752Z,4.22
2022-11-30T13:08:25.500Z,5.50
2022-11-30T13:10:35.904Z,4.38
2022-11-30T13:12:39.298Z,5.93
2022-11-30T13:14:41.660Z,4.57
2022-11-30T13:16:43.886Z,5.05
2022-11-30T13:18:45.904Z,4.43
2022-11-30T13:20:55.847Z,4.78
2022-11-30T13:23:06.363Z,4.35
2022-11-30T13:25:45.268Z,5.20
2022-11-30T13:27:56.956Z,3.65
2022-11-30T13:30:14.956Z,4.65
2022-11-30T13:32:49.021Z,5.10
2022-11-30T13:34:39.956Z,4.18
2022-11-30T13:36:44.840Z,5.43
2022-11-30T13:38:47.245Z,4.25
2022-11-30T13:40:59.250Z,5.05
2022-11-30T13:43:01.079Z,5.43
2022-11-30T13:45:26.807Z,5.85
2022-11-30T13:47:36.087Z,6.18
2022-11-30T13:49:37.912Z,6.55
2022-11-30T13:51:40.831Z,6.88
2022-11-30T13:53:42.677Z,6.20
2022-11-30T13:56:02.188Z,5.93
2022-11-30T13:58:06.371Z,6.82
2022-11-30T14:00:37.165Z,6.32
2022-11-30T14:02:42.613Z,6.18
2022-11-30T14:04:46.194Z,5.07
2022-11-30T14:06:53.216Z,6.70
2022-11-30T14:08:54.876Z,7.90
2022-11-30T14:11:33.926Z,6.65
2022-11-30T14:13:35.634Z,6.00
2022-11-30T14:15:40.953Z,6.82
2022-11-30T14:17:42.753Z,6.13
2022-11-30T14:19:46.779Z,6.40
2022-11-30T14:21:49.187Z,7.03
2022-11-30T14:23:58.235Z,7.60
2022-11-30T14:26:10.230Z,6.97
2022-11-30T14:28:16.348Z,7.22
2022-11-30T14:30:23.392Z,6.65
2022-11-30T14:32:41.139Z,7.40
2022-11-30T14:34:48.329Z,6.82
2022-11-30T14:36:56.609Z,6.85
2022-11-30T14:38:58.305Z,7.10
2022-11-30T14:41:00.653Z,7.70
2022-11-30T14:43:02.900Z,6.90
2022-11-30T14:45:18.616Z,6.05
2022-11-30T14:47:24.576Z,8.02
2022-11-30T14:49:26.228Z,7.38
2022-11-30T14:51:27.953Z,7.32
2022-11-30T14:53:56.463Z,8.32
2022-11-30T14:56:19.702Z,8.10
2022-11-30T14:58:40.047Z,8.18
2022-11-30T15:00:43.690Z,7.68
2022-11-30T15:02:45.835Z,8.75
2022-11-30T15:04:50.183Z,9.02
2022-11-30T15:06:51.912Z,10.10
2022-11-30T15:08:56.165Z,8.13
2022-11-30T15:11:06.400Z,7.80
2022-11-30T15:13:12.733Z,8.27
2022-11-30T15:15:18.320Z,8.45
2022-11-30T15:17:20.070Z,9.68
2022-11-30T15:19:22.396Z,8.13
2022-11-30T15:21:32.237Z,9.75
2022-11-30T15:23:34.427Z,8.52
2022-11-30T15:25:42.699Z,9.18
2022-11-30T15:27:44.573Z,8.40
2022-11-30T15:29:54.251Z,9.15
2022-11-30T15:31:57.730Z,9.02
2022-11-30T15:33:59.899Z,8.50
2022-11-30T15:36:23.054Z,7.32
2022-11-30T15:38:25.945Z,8.77
2022-11-30T15:40:34.925Z,11.68
2022-11-30T15:42:40.462Z,10.80
2022-11-30T15:44:46.742Z,9.80
2022-11-30T15:46:57.688Z,9.95
2022-11-30T15:49:15.049Z,8.70
2022-11-30T15:51:23.552Z,9.23
2022-11-30T15:53:33.887Z,9.05
2022-11-30T15:55:48.296Z,6.93
2022-11-30T15:57:58.452Z,6.88
2022-11-30T16:00:23.268Z,8.43
2022-11-30T16:02:28.747Z,8.55
2022-11-30T16:04:58.689Z,6.57
2022-11-30T16:07:00.555Z,7.65
2022-11-30T16:09:23.287Z,7.45
2022-11-30T16:11:25.085Z,8.73
2022-11-30T16:13:30.276Z,9.43
2022-11-30T16:15:35.627Z,8.18
2022-11-30T16:17:37.496Z,9.27
2022-11-30T16:19:39.197Z,12.07
2022-11-30T16:21:41.360Z,9.45
2022-11-30T16:23:43.488Z,10.25
2022-11-30T16:25:46.493Z,9.93
2022-11-30T16:27:48.277Z,10.25
2022-11-30T16:29:52.760Z,11.10
2022-11-30T16:31:54.837Z,8.98
2022-11-30T16:33:56.554Z,9.20
2022-11-30T16:36:06.281Z,8.15
2022-11-30T16:38:08.060Z,9.25
2022-11-30T16:40:10.297Z,10.18
2022-11-30T16:42:12.770Z,10.05
2022-11-30T16:44:14.720Z,11.63
2022-11-30T16:46:21.722Z,11.10
2022-11-30T16:48:23.556Z,9.30
2022-11-30T16:50:25.285Z,6.40
2022-11-30T16:52:27.034Z,6.97
2022-11-30T16:54:28.778Z,6.90
2022-11-30T16:56:30.513Z,7.40
2022-11-30T16:58:32.291Z,5.70
2022-11-30T17:00:34.457Z,6.28
2022-11-30T17:02:39.112Z,7.00
2022-11-30T17:04:40.944Z,6.05
2022-11-30T17:06:45.737Z,6.72
2022-11-30T17:08:50.698Z,6.63
2022-11-30T17:10:54.059Z,6.80
2022-11-30T17:12:55.805Z,5.50
2022-11-30T17:14:57.505Z,6.18
2022-11-30T17:17:02.088Z,5.60
2022-11-30T17:19:04.076Z,6.10
2022-11-30T17:21:06.052Z,6.38
2022-11-30T17:23:07.867Z,6.15
2022-11-30T17:25:16.255Z,5.65
2022-11-30T17:27:18.046Z,6.05
2022-11-30T17:29:19.730Z,6.05
2022-11-30T17:31:22.024Z,5.82
2022-11-30T17:33:23.835Z,7.22
2022-11-30T17:35:25.556Z,5.07
2022-11-30T17:37:27.476Z,5.25
2022-11-30T17:39:29.194Z,5.03
2022-11-30T17:41:31.065Z,5.60
2022-11-30T17:43:33.379Z,5.65
2022-11-30T17:45:39.277Z,5.25
2022-11-30T17:47:41.055Z,4.43
2022-11-30T17:49:43.121Z,4.35
2022-11-30T17:51:44.911Z,3.55
2022-11-30T17:53:46.664Z,3.70
2022-11-30T17:55:48.655Z,4.43
2022-11-30T17:57:50.434Z,4.75
2022-11-30T17:59:52.212Z,3.15
2022-11-30T18:01:54.092Z,4.60
2022-11-30T18:03:59.190Z,3.67
2022-11-30T18:06:01.811Z,3.70
2022-11-30T18:08:03.721Z,3.55
2022-11-30T18:10:06.360Z,3.95
2022-11-30T18:12:08.258Z,3.35
2022-11-30T18:14:10.003Z,3.03
2022-11-30T18:16:14.327Z,3.58
2022-11-30T18:18:16.225Z,3.65
2022-11-30T18:20:18.969Z,3.03
2022-11-30T18:22:20.816Z,2.80
2022-11-30T18:24:25.568Z,2.40
2022-11-30T18:26:27.990Z,3.55
2022-11-30T18:28:30.105Z,2.85
2022-11-30T18:30:31.888Z,3.08
2022-11-30T18:32:33.825Z,2.95
2022-11-30T18:34:35.583Z,2.25
2022-11-30T18:36:37.277Z,3.08
2022-11-30T18:38:41.616Z,3.22
2022-11-30T18:40:43.896Z,3.42
2022-11-30T18:42:47.510Z,3.95
2022-11-30T18:44:49.394Z,3.95
2022-11-30T18:46:51.323Z,4.55
2022-11-30T18:48:54.662Z,4.28
2022-11-30T18:50:56.652Z,4.25
2022-11-30T18:52:58.620Z,4.88
2022-11-30T18:55:00.272Z,4.78
2022-11-30T18:57:02.356Z,4.57
2022-11-30T18:59:09.978Z,5.53
2022-11-30T19:01:17.474Z,3.90
2022-11-30T19:03:19.311Z,4.57
2022-11-30T19:05:35.042Z,5.43
2022-11-30T19:07:40.224Z,5.35
2022-11-30T19:09:42.852Z,5.50
2022-11-30T19:11:44.924Z,5.05
2022-11-30T19:13:46.631Z,4.90
2022-11-30T19:15:50.974Z,5.60
2022-11-30T19:17:54.493Z,5.32
2022-11-30T19:19:56.348Z,4.82
2022-11-30T19:22:01.175Z,6.13
2022-11-30T19:24:03.411Z,6.82
2022-11-30T19:26:06.414Z,6.45
2022-11-30T19:28:08.105Z,5.13
2022-11-30T19:30:10.747Z,5.55
2022-11-30T19:32:12.621Z,5.32
2022-11-30T19:34:14.367Z,4.78
2022-11-30T19:36:19.402Z,4.05
2022-11-30T19:38:21.147Z,4.25
2022-11-30T19:40:22.961Z,4.05
2022-11-30T19:42:24.720Z,5.20
2022-11-30T19:44:26.668Z,4.05
2022-11-30T19:46:28.564Z,3.95
2022-11-30T19:48:30.468Z,3.22
2022-11-30T19:50:32.274Z,3.85
2022-11-30T19:52:34.135Z,3.35
2022-11-30T19:54:35.862Z,3.85
2022-11-30T19:56:39.124Z,3.58
2022-11-30T19:58:42.075Z,3.20
2022-11-30T20:00:46.267Z,3.35
2022-11-30T20:02:49.684Z,2.72
2022-11-30T20:04:51.494Z,3.22
2022-11-30T20:06:53.291Z,2.58
2022-11-30T20:08:58.302Z,3.03
2022-11-30T20:11:00.088Z,2.58
2022-11-30T20:13:01.847Z,3.55
2022-11-30T20:15:03.770Z,2.75
2022-11-30T20:17:05.552Z,3.10
2022-11-30T20:19:07.299Z,2.63
2022-11-30T20:21:17.258Z,2.75
2022-11-30T20:23:19.086Z,3.05
2022-11-30T20:25:21.290Z,2.17
2022-11-30T20:27:24.895Z,2.22
2022-11-30T20:29:26.637Z,2.53
2022-11-30T20:31:30.147Z,2.40
2022-11-30T20:33:31.934Z,2.47
2022-11-30T20:35:35.180Z,2.55
2022-11-30T20:37:37.135Z,2.53
2022-11-30T20:39:45.348Z,1.80
2022-11-30T20:41:47.628Z,1.52
2022-11-30T20:43:49.742Z,1.38
2022-11-30T20:45:52.154Z,1.55
2022-11-30T20:47:53.924Z,1.83
2022-11-30T20:49:55.615Z,1.88
2022-11-30T20:51:57.359Z,1.50
2022-11-30T20:54:00.813Z,1.27
2022-11-30T20:56:02.558Z,1.60
2022-11-30T20:58:04.373Z,2.20
2022-11-30T21:00:10.159Z,2.10
2022-11-30T21:02:14.931Z,1.40
2022-11-30T21:04:21.008Z,1.73
2022-11-30T21:06:22.835Z,1.95
2022-11-30T21:08:24.580Z,2.35
2022-11-30T21:10:26.338Z,2.17
2022-11-30T21:12:28.230Z,2.72
2022-11-30T21:14:29.920Z,2.45
2022-11-30T21:16:31.944Z,3.13
2022-11-30T21:18:38.006Z,2.83
2022-11-30T21:20:39.689Z,2.80
2022-11-30T21:22:41.409Z,2.97
2022-11-30T21:24:43.098Z,3.45
2022-11-30T21:26:44.944Z,4.43
2022-11-30T21:28:47.495Z,4.07
2022-11-30T21:30:49.296Z,4.03
2022-11-30T21:32:51.109Z,4.15
2022-11-30T21:34:52.895Z,5.15
2022-11-30T21:36:54.815Z,5.13
2022-11-30T21:39:05.002Z,4.45
2022-11-30T21:41:07.825Z,6.20
2022-11-30T21:43:09.595Z,5.97
2022-11-30T21:45:11.557Z,5.88
2022-11-30T21:47:14.640Z,4.70
2022-11-30T21:49:16.614Z,5.60
2022-11-30T21:51:22.422Z,5.18
2022-11-30T21:53:24.233Z,5.53
2022-11-30T21:55:25.914Z,5.28
2022-11-30T21:57:27.663Z,6.70
2022-11-30T21:59:29.446Z,6.40
2022-11-30T22:01:33.657Z,6.97
2022-11-30T22:03:35.545Z,7.35
2022-11-30T22:05:37.348Z,7.93
2022-11-30T22:07:39.189Z,6.10
2022-11-30T22:09:40.967Z,7.75
2022-11-30T22:11:43.873Z,9.68
2022-11-30T22:13:49.714Z,8.85
2022-11-30T22:15:58.239Z,8.48
2022-11-30T22:18:00.082Z,7.65
2022-11-30T22:20:01.875Z,8.55
2022-11-30T22:22:03.825Z,8.90
2022-11-30T22:24:07.611Z,8.90
2022-11-30T22:26:14.404Z,9.75
2022-11-30T22:28:16.149Z,10.40
2022-11-30T22:30:18.034Z,9.18
2022-11-30T22:32:22.311Z,9.15
2022-11-30T22:34:24.214Z,11.68
2022-11-30T22:36:27.806Z,11.05
2022-11-30T22:38:30.015Z,10.57
2022-11-30T22:40:31.987Z,8.73
2022-11-30T22:42:35.803Z,10.05
2022-11-30T22:44:37.576Z,9.27
2022-11-30T22:46:39.500Z,8.65
2022-11-30T22:48:42.030Z,9.75
2022-11-30T22:50:43.760Z,8.65
2022-11-30T22:53:02.406Z,10.18
2022-11-30T22:55:05.182Z,9.95
2022-11-30T22:57:07.076Z,10.98
2022-11-30T22:59:11.703Z,10.05
2022-11-30T23:01:15.967Z,9.85
2022-11-30T23:03:17.777Z,12.20
2022-11-30T23:05:19.573Z,11.43
2022-11-30T23:07:21.386Z,11.68
2022-11-30T23:09:23.658Z,10.90
2022-11-30T23:11:26.268Z,10.10
2022-11-30T23:13:28.449Z,10.07
2022-11-30T23:15:30.153Z,9.68
2022-11-30T23:17:31.889Z,11.63
2022-11-30T23:19:33.656Z,10.02
2022-11-30T23:21:41.307Z,10.23
2022-11-30T23:23:44.306Z,10.82
2022-11-30T23:25:49.946Z,10.60
2022-11-30T23:27:51.714Z,11.27
2022-11-30T23:29:53.466Z,11.13
2022-11-30T23:31:55.309Z,12.68
2022-11-30T23:33:57.082Z,12.35
2022-11-30T23:35:58.817Z,10.13
2022-11-30T23:38:00.555Z,11.35
2022-11-30T23:40:02.250Z,12.00
2022-11-30T23:42:04.168Z,11.13
2022-11-30T23:44:07.249Z,12.00
2022-11-30T23:46:10.523Z,12.23
2022-11-30T23:48:12.443Z,12.52
2022-11-30T23:50:14.163Z,9.73
2022-11-30T23:52:15.950Z,11.13
2022-11-30T23:54:18.079Z,10.20
2022-11-30T23:56:21.979Z,10.23
2022-11-30T23:58:24.183Z,11.57
